createdAt,value
2018-03-26T00:00:20.951Z,51.98
2018-03-26T00:00:43.006Z,51.93
2018-03-26T00:01:05.079Z,51.94
2018-03-26T00:01:27.139Z,51.95
2018-03-26T00:01:49.988Z,51.96
2018-03-26T00:02:12.073Z,51.93
2018-03-26T00:02:34.905Z,51.89
2018-03-26T00:02:57.758Z,51.88
2018-03-26T00:03:20.578Z,51.86
2018-03-26T00:03:42.650Z,51.89
2018-03-26T00:04:04.709Z,51.90
2018-03-26T00:04:26.757Z,51.88
2018-03-26T00:04:48.825Z,51.89
2018-03-26T00:05:11.652Z,51.89
2018-03-26T00:05:33.710Z,51.90
2018-03-26T00:05:56.542Z,51.90
2018-03-26T00:06:19.379Z,51.89
2018-03-26T00:06:42.192Z,51.90
2018-03-26T00:07:04.275Z,51.88
2018-03-26T00:07:26.325Z,51.87
2018-03-26T00:07:48.412Z,51.87
2018-03-26T00:08:10.478Z,51.86
2018-03-26T00:08:33.306Z,51.85
2018-03-26T00:08:55.359Z,51.86
2018-03-26T00:09:17.414Z,51.86
2018-03-26T00:09:39.490Z,51.88
2018-03-26T00:10:01.657Z,51.83
2018-03-26T00:10:23.712Z,51.83
2018-03-26T00:10:46.543Z,51.86
2018-03-26T00:11:09.451Z,51.86
2018-03-26T00:11:31.684Z,51.86
2018-03-26T00:11:55.348Z,51.85
2018-03-26T00:12:17.410Z,51.87
2018-03-26T00:12:39.634Z,51.87
2018-03-26T00:13:02.064Z,51.88
2018-03-26T00:13:24.117Z,51.84
2018-03-26T00:13:46.162Z,51.81
2018-03-26T00:14:09.073Z,51.82
2018-03-26T00:14:31.126Z,51.82
2018-03-26T00:14:53.186Z,51.81
2018-03-26T00:15:15.288Z,51.81
2018-03-26T00:15:37.361Z,51.79
2018-03-26T00:16:00.185Z,51.77
2018-03-26T00:16:22.308Z,51.78
2018-03-26T00:16:44.362Z,51.79
2018-03-26T00:17:06.456Z,51.81
2018-03-26T00:17:29.273Z,51.78
2018-03-26T00:17:51.324Z,51.75
2018-03-26T00:18:13.377Z,51.78
2018-03-26T00:18:35.432Z,51.79
2018-03-26T00:18:58.263Z,51.77
2018-03-26T00:19:21.089Z,51.78
2018-03-26T00:19:43.156Z,51.78
2018-03-26T00:20:05.209Z,51.80
2018-03-26T00:20:27.332Z,51.78
2018-03-26T00:20:49.403Z,51.74
2018-03-26T00:21:11.485Z,51.76
2018-03-26T00:21:33.532Z,51.77
2018-03-26T00:21:55.595Z,51.77
2018-03-26T00:22:17.654Z,51.76
2018-03-26T00:22:40.469Z,51.77
2018-03-26T00:23:02.539Z,51.72
2018-03-26T00:23:24.591Z,51.72
2018-03-26T00:23:46.827Z,51.73
2018-03-26T00:24:08.872Z,51.74
2018-03-26T00:24:31.000Z,51.72
2018-03-26T00:24:53.053Z,51.72
2018-03-26T00:25:15.099Z,51.74
2018-03-26T00:25:37.202Z,51.72
2018-03-26T00:25:59.369Z,51.70
2018-03-26T00:26:21.610Z,51.71
2018-03-26T00:26:43.686Z,51.74
2018-03-26T00:27:06.508Z,51.74
2018-03-26T00:27:28.591Z,51.74
2018-03-26T00:27:50.743Z,51.72
2018-03-26T00:28:12.884Z,51.73
2018-03-26T00:28:34.964Z,51.72
2018-03-26T00:28:57.012Z,51.74
2018-03-26T00:29:19.918Z,51.70
2018-03-26T00:29:41.981Z,51.69
2018-03-26T00:30:04.034Z,51.70
2018-03-26T00:30:26.088Z,51.67
2018-03-26T00:30:48.144Z,51.67
2018-03-26T00:31:10.194Z,51.68
2018-03-26T00:31:32.237Z,51.68
2018-03-26T00:31:54.294Z,51.68
2018-03-26T00:32:16.522Z,51.68
2018-03-26T00:32:38.616Z,51.70
2018-03-26T00:33:01.447Z,51.68
2018-03-26T00:33:24.283Z,51.66
2018-03-26T00:33:47.113Z,51.64
2018-03-26T00:34:09.936Z,51.69
2018-03-26T00:34:31.992Z,51.69
2018-03-26T00:34:54.036Z,51.67
2018-03-26T00:35:16.102Z,51.67
2018-03-26T00:35:38.923Z,51.68
2018-03-26T00:36:01.774Z,51.66
2018-03-26T00:36:24.617Z,51.66
2018-03-26T00:36:46.696Z,51.62
2018-03-26T00:37:08.801Z,51.64
2018-03-26T00:37:30.858Z,51.66
2018-03-26T00:37:53.704Z,51.66
2018-03-26T00:38:16.525Z,51.66
2018-03-26T00:38:39.353Z,51.62
2018-03-26T00:39:01.612Z,51.60
2018-03-26T00:39:23.674Z,51.59
2018-03-26T00:39:45.725Z,51.61
2018-03-26T00:40:08.539Z,51.61
2018-03-26T00:40:30.594Z,51.62
2018-03-26T00:40:52.683Z,51.62
2018-03-26T00:41:14.728Z,51.60
2018-03-26T00:41:36.901Z,51.59
2018-03-26T00:41:59.025Z,51.60
2018-03-26T00:42:21.253Z,51.63
2018-03-26T00:42:43.305Z,51.63
2018-03-26T00:43:05.606Z,51.63
2018-03-26T00:43:28.464Z,51.61
2018-03-26T00:43:50.521Z,51.59
2018-03-26T00:44:12.560Z,51.59
2018-03-26T00:44:34.605Z,51.61
2018-03-26T00:44:57.563Z,51.59
2018-03-26T00:45:19.621Z,51.61
2018-03-26T00:45:41.690Z,51.60
2018-03-26T00:46:03.739Z,51.60
2018-03-26T00:46:25.792Z,51.59
2018-03-26T00:46:48.623Z,51.60
2018-03-26T00:47:10.681Z,51.59
2018-03-26T00:47:32.756Z,51.59
2018-03-26T00:47:54.821Z,51.61
2018-03-26T00:48:17.698Z,51.59
2018-03-26T00:48:39.885Z,51.58
2018-03-26T00:49:01.931Z,51.58
2018-03-26T00:49:23.982Z,51.55
2018-03-26T00:49:46.889Z,51.55
2018-03-26T00:50:08.949Z,51.55
2018-03-26T00:50:31.014Z,51.56
2018-03-26T00:50:53.271Z,51.55
2018-03-26T00:51:16.088Z,51.55
2018-03-26T00:51:38.137Z,51.53
2018-03-26T00:52:00.185Z,51.54
2018-03-26T00:52:22.241Z,51.54
2018-03-26T00:52:44.359Z,51.55
2018-03-26T00:53:06.413Z,51.55
2018-03-26T00:53:28.488Z,51.55
2018-03-26T00:53:51.316Z,51.55
2018-03-26T00:54:13.381Z,51.56
2018-03-26T00:54:35.432Z,51.54
2018-03-26T00:54:57.476Z,51.51
2018-03-26T00:55:19.528Z,51.52
2018-03-26T00:55:41.591Z,51.55
2018-03-26T00:56:03.780Z,51.56
2018-03-26T00:56:25.845Z,51.52
2018-03-26T00:56:47.896Z,51.50
2018-03-26T00:57:10.725Z,51.50
2018-03-26T00:57:33.542Z,51.49
2018-03-26T00:57:55.576Z,51.51
2018-03-26T00:58:18.394Z,51.50
2018-03-26T00:58:41.995Z,51.47
2018-03-26T00:59:04.054Z,51.50
2018-03-26T00:59:26.101Z,51.50
2018-03-26T00:59:48.993Z,51.54
2018-03-26T01:00:11.046Z,51.51
2018-03-26T01:00:33.878Z,51.48
2018-03-26T01:00:56.706Z,51.48
2018-03-26T01:01:18.758Z,51.49
2018-03-26T01:01:40.819Z,51.49
2018-03-26T01:02:02.872Z,51.49
2018-03-26T01:02:25.696Z,51.49
2018-03-26T01:02:47.761Z,51.48
2018-03-26T01:03:09.829Z,51.49
2018-03-26T01:03:31.885Z,51.48
2018-03-26T01:03:53.979Z,51.47
2018-03-26T01:04:16.794Z,51.46
2018-03-26T01:04:38.850Z,51.48
2018-03-26T01:05:01.089Z,51.46
2018-03-26T01:05:23.145Z,51.46
2018-03-26T01:05:45.191Z,51.45
2018-03-26T01:06:08.013Z,51.46
2018-03-26T01:06:30.824Z,51.45
2018-03-26T01:06:52.872Z,51.45
2018-03-26T01:07:15.691Z,51.44
2018-03-26T01:07:37.792Z,51.45
2018-03-26T01:07:59.852Z,51.43
2018-03-26T01:08:21.912Z,51.44
2018-03-26T01:08:43.972Z,51.45
2018-03-26T01:09:06.832Z,51.44
2018-03-26T01:09:28.879Z,51.44
2018-03-26T01:09:50.932Z,51.43
2018-03-26T01:10:13.198Z,51.44
2018-03-26T01:10:35.292Z,51.45
2018-03-26T01:10:57.355Z,51.44
2018-03-26T01:11:19.461Z,51.44
2018-03-26T01:11:41.524Z,51.44
2018-03-26T01:12:03.572Z,51.42
2018-03-26T01:12:25.738Z,51.40
2018-03-26T01:12:47.844Z,51.41
2018-03-26T01:13:09.887Z,51.40
2018-03-26T01:13:31.937Z,51.39
2018-03-26T01:13:53.985Z,51.41
2018-03-26T01:14:16.032Z,51.41
2018-03-26T01:14:38.132Z,51.40
2018-03-26T01:15:00.198Z,51.40
2018-03-26T01:15:23.064Z,51.39
2018-03-26T01:15:45.193Z,51.40
2018-03-26T01:16:07.280Z,51.39
2018-03-26T01:16:29.335Z,51.38
2018-03-26T01:16:51.390Z,51.38
2018-03-26T01:17:13.457Z,51.39
2018-03-26T01:17:35.554Z,51.41
2018-03-26T01:17:57.609Z,51.39
2018-03-26T01:18:19.805Z,51.38
2018-03-26T01:18:41.861Z,51.37
2018-03-26T01:19:03.918Z,51.36
2018-03-26T01:19:26.765Z,51.37
2018-03-26T01:19:48.814Z,51.36
2018-03-26T01:20:11.029Z,51.37
2018-03-26T01:20:33.185Z,51.38
2018-03-26T01:20:55.237Z,51.34
2018-03-26T01:21:17.343Z,51.34
2018-03-26T01:21:40.162Z,51.34
2018-03-26T01:22:03.253Z,51.31
2018-03-26T01:22:25.319Z,51.33
2018-03-26T01:22:47.382Z,51.32
2018-03-26T01:23:09.478Z,51.33
2018-03-26T01:23:31.536Z,51.32
2018-03-26T01:23:53.592Z,51.29
2018-03-26T01:24:16.415Z,51.30
2018-03-26T01:24:38.522Z,51.28
2018-03-26T01:25:00.612Z,51.29
2018-03-26T01:25:22.764Z,51.28
2018-03-26T01:25:45.666Z,51.28
2018-03-26T01:26:07.746Z,51.27
2018-03-26T01:26:30.566Z,51.29
2018-03-26T01:26:52.619Z,51.28
2018-03-26T01:27:14.671Z,51.30
2018-03-26T01:27:36.721Z,51.30
2018-03-26T01:27:58.826Z,51.27
2018-03-26T01:28:20.881Z,51.27
2018-03-26T01:28:43.002Z,51.28
2018-03-26T01:29:05.064Z,51.32
2018-03-26T01:29:27.130Z,51.28
2018-03-26T01:29:49.991Z,51.27
2018-03-26T01:30:12.040Z,51.26
2018-03-26T01:30:34.101Z,51.24
2018-03-26T01:30:56.157Z,51.24
2018-03-26T01:31:18.210Z,51.26
2018-03-26T01:31:41.039Z,51.24
2018-03-26T01:32:03.108Z,51.26
2018-03-26T01:32:25.157Z,51.24
2018-03-26T01:32:47.214Z,51.25
2018-03-26T01:33:10.038Z,51.24
2018-03-26T01:33:32.873Z,51.24
2018-03-26T01:33:55.683Z,51.23
2018-03-26T01:34:17.731Z,51.23
2018-03-26T01:34:40.554Z,51.24
2018-03-26T01:35:02.635Z,51.22
2018-03-26T01:35:24.681Z,51.23
2018-03-26T01:35:46.758Z,51.21
2018-03-26T01:36:08.807Z,51.22
2018-03-26T01:36:30.865Z,51.22
2018-03-26T01:36:52.926Z,51.18
2018-03-26T01:37:15.781Z,51.21
2018-03-26T01:37:37.838Z,51.21
2018-03-26T01:37:59.903Z,51.20
2018-03-26T01:38:21.965Z,51.21
2018-03-26T01:38:44.783Z,51.18
2018-03-26T01:39:06.890Z,51.21
2018-03-26T01:39:28.961Z,51.20
2018-03-26T01:39:51.134Z,51.19
2018-03-26T01:40:13.221Z,51.17
2018-03-26T01:40:35.282Z,51.18
2018-03-26T01:40:58.112Z,51.17
2018-03-26T01:41:20.941Z,51.17
2018-03-26T01:41:43.017Z,51.17
2018-03-26T01:42:05.139Z,51.17
2018-03-26T01:42:27.195Z,51.17
2018-03-26T01:42:49.255Z,51.19
2018-03-26T01:43:11.307Z,51.18
2018-03-26T01:43:33.490Z,51.18
2018-03-26T01:43:55.555Z,51.18
2018-03-26T01:44:17.614Z,51.16
2018-03-26T01:44:39.845Z,51.15
2018-03-26T01:45:01.895Z,51.15
2018-03-26T01:45:23.983Z,51.16
2018-03-26T01:45:46.058Z,51.16
2018-03-26T01:46:08.107Z,51.15
2018-03-26T01:46:30.159Z,51.15
2018-03-26T01:46:52.222Z,51.15
2018-03-26T01:47:15.049Z,51.15
2018-03-26T01:47:37.882Z,51.14
2018-03-26T01:48:00.767Z,51.13
2018-03-26T01:48:22.826Z,51.12
2018-03-26T01:48:44.880Z,51.11
2018-03-26T01:49:07.124Z,51.12
2018-03-26T01:49:29.200Z,51.13
2018-03-26T01:49:52.031Z,51.13
2018-03-26T01:50:14.916Z,51.12
2018-03-26T01:50:37.008Z,51.09
2018-03-26T01:50:59.123Z,51.11
2018-03-26T01:51:21.189Z,51.12
2018-03-26T01:51:43.240Z,51.11
2018-03-26T01:52:06.073Z,51.09
2018-03-26T01:52:28.947Z,51.09
2018-03-26T01:52:51.007Z,51.09
2018-03-26T01:53:13.090Z,51.11
2018-03-26T01:53:35.193Z,51.09
2018-03-26T01:53:57.366Z,51.08
2018-03-26T01:54:19.413Z,51.08
2018-03-26T01:54:42.243Z,51.08
2018-03-26T01:55:05.062Z,51.07
2018-03-26T01:55:27.118Z,51.05
2018-03-26T01:55:49.213Z,51.06
2018-03-26T01:56:12.022Z,51.08
2018-03-26T01:56:34.077Z,51.07
2018-03-26T01:56:56.129Z,51.06
2018-03-26T01:57:18.191Z,51.07
2018-03-26T01:57:41.069Z,51.06
2018-03-26T01:58:03.119Z,51.06
2018-03-26T01:58:25.172Z,51.05
2018-03-26T01:58:47.993Z,51.04
2018-03-26T01:59:10.813Z,51.02
2018-03-26T01:59:34.372Z,51.04
2018-03-26T01:59:56.444Z,51.05
2018-03-26T02:00:18.496Z,51.04
2018-03-26T02:00:41.382Z,51.07
2018-03-26T02:01:03.448Z,51.05
2018-03-26T02:01:25.509Z,51.06
2018-03-26T02:01:47.588Z,51.05
2018-03-26T02:02:09.646Z,51.06
2018-03-26T02:02:31.722Z,51.04
2018-03-26T02:02:53.775Z,51.05
2018-03-26T02:03:15.828Z,51.04
2018-03-26T02:03:37.893Z,51.04
2018-03-26T02:04:00.773Z,51.03
2018-03-26T02:04:22.833Z,51.04
2018-03-26T02:04:44.971Z,51.03
2018-03-26T02:05:06.984Z,51.03
2018-03-26T02:05:29.814Z,51.04
2018-03-26T02:05:52.634Z,51.03
2018-03-26T02:06:14.691Z,51.03
2018-03-26T02:06:36.770Z,51.03
2018-03-26T02:06:59.584Z,51.02
2018-03-26T02:07:21.638Z,51.02
2018-03-26T02:07:44.446Z,51.03
2018-03-26T02:08:06.498Z,51.03
2018-03-26T02:08:29.353Z,51.03
2018-03-26T02:08:51.412Z,51.02
2018-03-26T02:09:13.471Z,51.02
2018-03-26T02:09:36.299Z,51.02
2018-03-26T02:09:59.123Z,51.01
2018-03-26T02:10:21.173Z,51.01
2018-03-26T02:10:43.228Z,51.02
2018-03-26T02:11:05.277Z,51.00
2018-03-26T02:11:28.136Z,51.01
2018-03-26T02:11:50.204Z,51.01
2018-03-26T02:12:12.254Z,50.98
2018-03-26T02:12:35.067Z,51.02
2018-03-26T02:12:57.125Z,51.00
2018-03-26T02:13:19.216Z,50.99
2018-03-26T02:13:41.264Z,50.99
2018-03-26T02:14:03.324Z,51.02
2018-03-26T02:14:25.630Z,51.02
2018-03-26T02:14:47.695Z,51.00
2018-03-26T02:15:10.523Z,51.02
2018-03-26T02:15:33.447Z,50.98
2018-03-26T02:15:55.523Z,50.98
2018-03-26T02:16:17.720Z,50.97
2018-03-26T02:16:40.528Z,51.03
2018-03-26T02:17:02.579Z,50.96
2018-03-26T02:17:24.637Z,50.95
2018-03-26T02:17:46.686Z,50.94
2018-03-26T02:18:08.748Z,50.95
2018-03-26T02:18:30.796Z,50.95
2018-03-26T02:18:52.851Z,50.94
2018-03-26T02:19:15.674Z,50.94
2018-03-26T02:19:37.748Z,50.95
2018-03-26T02:19:59.796Z,50.96
2018-03-26T02:20:21.844Z,50.93
2018-03-26T02:20:44.665Z,50.96
2018-03-26T02:21:07.483Z,50.96
2018-03-26T02:21:29.536Z,50.94
2018-03-26T02:21:51.618Z,50.96
2018-03-26T02:22:13.723Z,50.96
2018-03-26T02:22:35.776Z,50.93
2018-03-26T02:22:58.588Z,50.93
2018-03-26T02:23:20.636Z,50.92
2018-03-26T02:23:43.525Z,50.91
2018-03-26T02:24:05.589Z,50.91
2018-03-26T02:24:28.417Z,50.88
2018-03-26T02:24:51.208Z,50.89
2018-03-26T02:25:13.258Z,50.91
2018-03-26T02:25:36.052Z,50.91
2018-03-26T02:25:58.113Z,50.90
2018-03-26T02:26:20.947Z,50.91
2018-03-26T02:26:43.865Z,50.89
2018-03-26T02:27:06.038Z,50.88
2018-03-26T02:27:28.108Z,50.85
2018-03-26T02:27:50.165Z,50.89
2018-03-26T02:28:12.217Z,50.90
2018-03-26T02:28:34.262Z,50.91
2018-03-26T02:28:56.322Z,50.90
2018-03-26T02:29:18.390Z,50.89
2018-03-26T02:29:40.453Z,50.87
2018-03-26T02:30:02.501Z,50.89
2018-03-26T02:30:24.548Z,50.92
2018-03-26T02:30:46.612Z,50.89
2018-03-26T02:31:08.664Z,50.92
2018-03-26T02:31:30.728Z,50.93
2018-03-26T02:31:52.791Z,50.89
2018-03-26T02:32:14.869Z,50.87
2018-03-26T02:32:36.934Z,50.89
2018-03-26T02:32:59.061Z,50.87
2018-03-26T02:33:21.111Z,50.88
2018-03-26T02:33:43.920Z,50.91
2018-03-26T02:34:05.984Z,50.91
2018-03-26T02:34:28.033Z,50.87
2018-03-26T02:34:50.100Z,50.89
2018-03-26T02:35:12.163Z,50.87
2018-03-26T02:35:34.239Z,50.88
2018-03-26T02:35:56.291Z,50.88
2018-03-26T02:36:18.346Z,50.86
2018-03-26T02:36:40.405Z,50.85
2018-03-26T02:37:02.471Z,50.86
2018-03-26T02:37:24.552Z,50.85
2018-03-26T02:37:46.601Z,50.86
2018-03-26T02:38:08.662Z,50.85
2018-03-26T02:38:30.769Z,50.85
2018-03-26T02:38:53.594Z,50.83
2018-03-26T02:39:16.414Z,50.82
2018-03-26T02:39:38.488Z,50.82
2018-03-26T02:40:00.542Z,50.82
2018-03-26T02:40:22.606Z,50.84
2018-03-26T02:40:44.681Z,50.82
2018-03-26T02:41:07.506Z,50.81
2018-03-26T02:41:29.567Z,50.81
2018-03-26T02:41:51.637Z,50.81
2018-03-26T02:42:13.693Z,50.79
2018-03-26T02:42:36.546Z,50.79
2018-03-26T02:42:58.606Z,50.78
2018-03-26T02:43:20.665Z,50.78
2018-03-26T02:43:42.722Z,50.79
2018-03-26T02:44:04.780Z,50.77
2018-03-26T02:44:26.845Z,50.75
2018-03-26T02:44:48.909Z,50.74
2018-03-26T02:45:10.971Z,50.77
2018-03-26T02:45:33.062Z,50.78
2018-03-26T02:45:55.881Z,50.77
2018-03-26T02:46:17.937Z,50.78
2018-03-26T02:46:39.992Z,50.78
2018-03-26T02:47:02.038Z,50.78
2018-03-26T02:47:24.857Z,50.77
2018-03-26T02:47:46.936Z,50.78
2018-03-26T02:48:09.002Z,50.75
2018-03-26T02:48:31.065Z,50.78
2018-03-26T02:48:53.217Z,50.77
2018-03-26T02:49:15.264Z,50.77
2018-03-26T02:49:38.152Z,50.80
2018-03-26T02:50:00.224Z,50.78
2018-03-26T02:50:23.082Z,50.76
2018-03-26T02:50:45.213Z,50.75
2018-03-26T02:51:07.212Z,50.74
2018-03-26T02:51:29.262Z,50.75
2018-03-26T02:51:51.316Z,50.74
2018-03-26T02:52:13.364Z,50.74
2018-03-26T02:52:35.613Z,50.71
2018-03-26T02:52:57.709Z,50.72
2018-03-26T02:53:19.769Z,50.72
2018-03-26T02:53:41.897Z,50.73
2018-03-26T02:54:04.000Z,50.72
2018-03-26T02:54:26.076Z,50.72
2018-03-26T02:54:48.135Z,50.73
2018-03-26T02:55:10.265Z,50.70
2018-03-26T02:55:32.568Z,50.70
2018-03-26T02:55:54.625Z,50.71
2018-03-26T02:56:16.677Z,50.71
2018-03-26T02:56:38.725Z,50.73
2018-03-26T02:57:00.776Z,50.73
2018-03-26T02:57:22.807Z,50.74
2018-03-26T02:57:45.689Z,50.71
2018-03-26T02:58:07.772Z,50.72
2018-03-26T02:58:29.831Z,50.72
2018-03-26T02:58:51.875Z,50.71
2018-03-26T02:59:13.937Z,50.69
2018-03-26T02:59:35.998Z,50.70
2018-03-26T02:59:58.041Z,50.69
2018-03-26T03:00:20.858Z,50.68
2018-03-26T03:00:42.946Z,50.69
2018-03-26T03:01:04.998Z,50.71
2018-03-26T03:01:27.171Z,50.72
2018-03-26T03:01:49.252Z,50.70
2018-03-26T03:02:12.065Z,50.69
2018-03-26T03:02:34.117Z,50.69
2018-03-26T03:02:56.170Z,50.68
2018-03-26T03:03:20.205Z,50.68
2018-03-26T03:03:42.263Z,50.68
2018-03-26T03:04:04.328Z,50.67
2018-03-26T03:04:26.378Z,50.67
2018-03-26T03:04:48.425Z,50.67
2018-03-26T03:05:10.471Z,50.65
2018-03-26T03:05:33.839Z,50.64
2018-03-26T03:05:55.900Z,50.63
2018-03-26T03:06:17.947Z,50.66
2018-03-26T03:06:40.788Z,50.65
2018-03-26T03:07:03.622Z,50.66
2018-03-26T03:07:26.443Z,50.65
2018-03-26T03:07:49.264Z,50.66
2018-03-26T03:08:11.336Z,50.64
2018-03-26T03:08:33.771Z,50.63
2018-03-26T03:08:55.830Z,50.65
2018-03-26T03:09:17.889Z,50.65
2018-03-26T03:09:39.932Z,50.63
2018-03-26T03:10:01.981Z,50.61
2018-03-26T03:10:24.104Z,50.63
2018-03-26T03:10:46.156Z,50.61
2018-03-26T03:11:08.225Z,50.63
2018-03-26T03:11:30.273Z,50.63
2018-03-26T03:11:53.206Z,50.64
2018-03-26T03:12:16.033Z,50.62
2018-03-26T03:12:38.098Z,50.61
2018-03-26T03:13:00.145Z,50.61
2018-03-26T03:13:22.209Z,50.62
2018-03-26T03:13:44.272Z,50.63
2018-03-26T03:14:06.343Z,50.64
2018-03-26T03:14:28.395Z,50.61
2018-03-26T03:14:50.440Z,50.63
2018-03-26T03:15:12.493Z,50.59
2018-03-26T03:15:34.554Z,50.58
2018-03-26T03:15:56.613Z,50.60
2018-03-26T03:16:19.438Z,50.59
2018-03-26T03:16:41.488Z,50.58
2018-03-26T03:17:03.557Z,50.59
2018-03-26T03:17:25.777Z,50.58
2018-03-26T03:17:47.835Z,50.57
2018-03-26T03:18:09.880Z,50.58
2018-03-26T03:18:31.928Z,50.58
2018-03-26T03:18:54.013Z,50.60
2018-03-26T03:19:16.070Z,50.59
2018-03-26T03:19:38.143Z,50.59
2018-03-26T03:20:00.204Z,50.57
2018-03-26T03:20:22.264Z,50.57
2018-03-26T03:20:44.319Z,50.58
2018-03-26T03:21:06.378Z,50.56
2018-03-26T03:21:29.293Z,50.54
2018-03-26T03:21:51.364Z,50.55
2018-03-26T03:22:13.472Z,50.56
2018-03-26T03:22:35.526Z,50.56
2018-03-26T03:22:57.592Z,50.57
2018-03-26T03:23:20.381Z,50.57
2018-03-26T03:23:42.433Z,50.57
2018-03-26T03:24:05.283Z,50.58
2018-03-26T03:24:27.373Z,50.57
2018-03-26T03:24:49.652Z,50.57
2018-03-26T03:25:11.704Z,50.58
2018-03-26T03:25:33.752Z,50.57
2018-03-26T03:25:56.577Z,50.57
2018-03-26T03:26:19.416Z,50.57
2018-03-26T03:26:42.244Z,50.57
2018-03-26T03:27:05.139Z,50.58
2018-03-26T03:27:27.194Z,50.59
2018-03-26T03:27:49.265Z,50.57
2018-03-26T03:28:11.365Z,50.56
2018-03-26T03:28:33.415Z,50.56
2018-03-26T03:28:55.496Z,50.55
2018-03-26T03:29:17.582Z,50.55
2018-03-26T03:29:39.637Z,50.55
2018-03-26T03:30:01.867Z,50.55
2018-03-26T03:30:23.922Z,50.54
2018-03-26T03:30:45.974Z,50.53
2018-03-26T03:31:08.056Z,50.54
2018-03-26T03:31:30.114Z,50.54
2018-03-26T03:31:52.168Z,50.54
2018-03-26T03:32:14.250Z,50.51
2018-03-26T03:32:36.309Z,50.52
2018-03-26T03:32:58.366Z,50.52
2018-03-26T03:33:21.191Z,50.53
2018-03-26T03:33:43.241Z,50.54
2018-03-26T03:34:05.417Z,50.54
2018-03-26T03:34:27.483Z,50.53
2018-03-26T03:34:49.545Z,50.53
2018-03-26T03:35:11.595Z,50.54
2018-03-26T03:35:34.379Z,50.54
2018-03-26T03:35:56.445Z,50.53
2018-03-26T03:36:19.254Z,50.53
2018-03-26T03:36:41.322Z,50.52
2018-03-26T03:37:03.382Z,50.52
2018-03-26T03:37:25.431Z,50.53
2018-03-26T03:37:48.240Z,50.53
2018-03-26T03:38:10.289Z,50.53
2018-03-26T03:38:33.106Z,50.52
2018-03-26T03:38:55.149Z,50.50
2018-03-26T03:39:17.204Z,50.51
2018-03-26T03:39:39.275Z,50.51
2018-03-26T03:40:02.100Z,50.51
2018-03-26T03:40:24.922Z,50.52
2018-03-26T03:40:46.991Z,50.51
2018-03-26T03:41:09.040Z,50.51
2018-03-26T03:41:31.111Z,50.50
2018-03-26T03:41:53.292Z,50.53
2018-03-26T03:42:15.349Z,50.52
2018-03-26T03:42:37.421Z,50.52
2018-03-26T03:42:59.481Z,50.54
2018-03-26T03:43:21.586Z,50.54
2018-03-26T03:43:44.496Z,50.53
2018-03-26T03:44:06.558Z,50.53
2018-03-26T03:44:28.648Z,50.53
2018-03-26T03:44:51.495Z,50.53
2018-03-26T03:45:14.322Z,50.50
2018-03-26T03:45:37.149Z,50.52
2018-03-26T03:45:59.227Z,50.53
2018-03-26T03:46:21.283Z,50.53
2018-03-26T03:46:43.346Z,50.52
2018-03-26T03:47:05.404Z,50.51
2018-03-26T03:47:27.457Z,50.53
2018-03-26T03:47:49.548Z,50.52
2018-03-26T03:48:11.652Z,50.51
2018-03-26T03:48:33.712Z,50.50
2018-03-26T03:48:55.841Z,50.51
2018-03-26T03:49:18.022Z,50.52
2018-03-26T03:49:40.069Z,50.54
2018-03-26T03:50:02.156Z,50.54
2018-03-26T03:50:24.265Z,50.52
2018-03-26T03:50:46.311Z,50.54
2018-03-26T03:51:09.221Z,50.53
2018-03-26T03:51:31.285Z,50.52
2018-03-26T03:51:53.400Z,50.52
2018-03-26T03:52:15.487Z,50.52
2018-03-26T03:52:37.541Z,50.53
2018-03-26T03:52:59.732Z,50.53
2018-03-26T03:53:22.548Z,50.53
2018-03-26T03:53:44.609Z,50.52
2018-03-26T03:54:06.677Z,50.51
2018-03-26T03:54:28.726Z,50.50
2018-03-26T03:54:51.545Z,50.52
2018-03-26T03:55:13.647Z,50.51
2018-03-26T03:55:35.700Z,50.51
2018-03-26T03:55:58.513Z,50.51
2018-03-26T03:56:20.561Z,50.49
2018-03-26T03:56:42.752Z,50.51
2018-03-26T03:57:04.800Z,50.50
2018-03-26T03:57:26.858Z,50.50
2018-03-26T03:57:48.920Z,50.50
2018-03-26T03:58:11.745Z,50.52
2018-03-26T03:58:34.564Z,50.53
2018-03-26T03:58:56.617Z,50.52
2018-03-26T03:59:18.796Z,50.52
2018-03-26T03:59:40.865Z,50.53
2018-03-26T04:00:02.944Z,50.50
2018-03-26T04:00:25.810Z,50.51
2018-03-26T04:00:47.868Z,50.50
2018-03-26T04:01:09.932Z,50.47
2018-03-26T04:01:32.745Z,50.51
2018-03-26T04:01:54.926Z,50.50
2018-03-26T04:02:16.973Z,50.52
2018-03-26T04:02:39.030Z,50.50
2018-03-26T04:03:01.217Z,50.52
2018-03-26T04:03:23.270Z,50.49
2018-03-26T04:03:45.399Z,50.50
2018-03-26T04:04:07.570Z,50.53
2018-03-26T04:04:29.685Z,50.54
2018-03-26T04:04:51.748Z,50.53
2018-03-26T04:05:13.846Z,50.53
2018-03-26T04:05:36.703Z,50.54
2018-03-26T04:05:58.740Z,50.53
2018-03-26T04:06:20.792Z,50.52
2018-03-26T04:06:42.844Z,50.54
2018-03-26T04:07:04.892Z,50.55
2018-03-26T04:07:26.957Z,50.53
2018-03-26T04:07:49.791Z,50.54
2018-03-26T04:08:11.839Z,50.54
2018-03-26T04:08:33.907Z,50.54
2018-03-26T04:08:55.974Z,50.53
2018-03-26T04:09:18.032Z,50.54
2018-03-26T04:09:40.071Z,50.53
2018-03-26T04:10:02.097Z,50.52
2018-03-26T04:10:24.920Z,50.50
2018-03-26T04:10:46.972Z,50.52
2018-03-26T04:11:09.185Z,50.52
2018-03-26T04:11:31.249Z,50.54
2018-03-26T04:11:53.377Z,50.50
2018-03-26T04:12:15.521Z,50.50
2018-03-26T04:12:37.576Z,50.52
2018-03-26T04:12:59.643Z,50.51
2018-03-26T04:13:21.930Z,50.50
2018-03-26T04:13:43.975Z,50.52
2018-03-26T04:14:06.038Z,50.51
2018-03-26T04:14:28.094Z,50.49
2018-03-26T04:14:50.157Z,50.53
2018-03-26T04:15:12.983Z,50.51
2018-03-26T04:15:35.809Z,50.50
2018-03-26T04:15:57.898Z,50.52
2018-03-26T04:16:19.950Z,50.53
2018-03-26T04:16:41.996Z,50.53
2018-03-26T04:17:04.052Z,50.52
2018-03-26T04:17:26.102Z,50.49
2018-03-26T04:17:48.966Z,50.50
2018-03-26T04:18:11.764Z,50.50
2018-03-26T04:18:33.878Z,50.53
2018-03-26T04:18:55.932Z,50.52
2018-03-26T04:19:18.743Z,50.52
2018-03-26T04:19:40.849Z,50.50
2018-03-26T04:20:02.918Z,50.49
2018-03-26T04:20:24.982Z,50.50
2018-03-26T04:20:47.815Z,50.50
2018-03-26T04:21:09.933Z,50.50
2018-03-26T04:21:31.981Z,50.53
2018-03-26T04:21:54.045Z,50.52
2018-03-26T04:22:16.096Z,50.50
2018-03-26T04:22:38.137Z,50.51
2018-03-26T04:23:01.088Z,50.50
2018-03-26T04:23:23.269Z,50.50
2018-03-26T04:23:45.323Z,50.50
2018-03-26T04:24:07.412Z,50.50
2018-03-26T04:24:29.465Z,50.50
2018-03-26T04:24:51.517Z,50.49
2018-03-26T04:25:13.586Z,50.51
2018-03-26T04:25:35.669Z,50.52
2018-03-26T04:25:57.723Z,50.50
2018-03-26T04:26:19.834Z,50.50
2018-03-26T04:26:42.662Z,50.46
2018-03-26T04:27:05.572Z,50.48
2018-03-26T04:27:28.380Z,50.49
2018-03-26T04:27:50.778Z,50.49
2018-03-26T04:28:12.856Z,50.50
2018-03-26T04:28:34.923Z,50.49
2018-03-26T04:28:56.977Z,50.50
2018-03-26T04:29:19.028Z,50.50
2018-03-26T04:29:41.904Z,50.49
2018-03-26T04:30:03.964Z,50.49
2018-03-26T04:30:25.985Z,50.47
2018-03-26T04:30:48.038Z,50.47
2018-03-26T04:31:10.094Z,50.46
2018-03-26T04:31:32.173Z,50.46
2018-03-26T04:31:54.237Z,50.46
2018-03-26T04:32:16.288Z,50.47
2018-03-26T04:32:39.100Z,50.48
2018-03-26T04:33:01.151Z,50.48
2018-03-26T04:33:23.384Z,50.48
2018-03-26T04:33:45.469Z,50.47
2018-03-26T04:34:08.279Z,50.46
2018-03-26T04:34:30.337Z,50.46
2018-03-26T04:34:53.150Z,50.43
2018-03-26T04:35:15.976Z,50.43
2018-03-26T04:35:38.045Z,50.43
2018-03-26T04:36:00.103Z,50.43
2018-03-26T04:36:22.155Z,50.41
2018-03-26T04:36:44.254Z,50.42
2018-03-26T04:37:06.308Z,50.42
2018-03-26T04:37:28.360Z,50.44
2018-03-26T04:37:50.427Z,50.47
2018-03-26T04:38:13.257Z,50.46
2018-03-26T04:38:36.086Z,50.44
2018-03-26T04:38:58.900Z,50.42
2018-03-26T04:39:20.961Z,50.42
2018-03-26T04:39:43.016Z,50.42
2018-03-26T04:40:05.077Z,50.43
2018-03-26T04:40:27.914Z,50.43
2018-03-26T04:40:50.729Z,50.48
2018-03-26T04:41:12.781Z,50.48
2018-03-26T04:41:34.830Z,50.46
2018-03-26T04:41:56.921Z,50.44
2018-03-26T04:42:18.970Z,50.43
2018-03-26T04:42:41.027Z,50.46
2018-03-26T04:43:03.854Z,50.49
2018-03-26T04:43:25.909Z,50.51
2018-03-26T04:43:47.962Z,50.54
2018-03-26T04:44:10.054Z,50.54
2018-03-26T04:44:32.123Z,50.49
2018-03-26T04:44:54.174Z,50.44
2018-03-26T04:45:16.234Z,50.44
2018-03-26T04:45:38.326Z,50.44
2018-03-26T04:46:00.378Z,50.42
2018-03-26T04:46:22.420Z,50.44
2018-03-26T04:46:45.246Z,50.46